Terminal Aerodrome Forecast
Issued by NWS Rapid City, SD

Home | Current Version | Previous Version | Graphics & Text | Print | Product List | Glossary On
Versions: 1 2 3 4 5 6 7 8 9 10 11 12 13 14 15 16 17 18 19 20 21 22 23 24 25 26
283
FTUS43 KUNR 291720
TAFRAP
TAF
KRAP 291720Z 2918/3018 15010KT P6SM SCT050
     FM292000 16010KT P6SM BKN060
     FM300200 VRB05KT P6SM SCT070=

USA.gov is the U.S. government's official web portal to all federal, state and local government web resources and services.